Hovedside
METAR-TAF:

METAR-TAF

Lufthavner :

Quatro de Fevereiro lufthavn

Luanda, Angola

breddegrad: 08-51S, lengdegrad: 013-14E, høyde over havet: 74 m

Gjeldene værobservasjon

Denne rapporten ble laget for 24 minutter siden, klokken 10:00 UTC
Vind 7 kt fra Vest-nordvest, skiftende mellom Vest-sørvest og Nordvest
Temperatur 28°C
Luftfuktighet 79%
Trykk 1012 hPa
Sikt: 8000 m
Brutte skyer i en høyde av 2000 ft

METAR: FNLU 251000Z 29007KT 250V320 8000 BKN020 28/24 Q1012 NOSIG

Tid: 11:24 (10:24 UTC)

Varsel

Denne rapporten ble laget for 5 timer og 24 minutter siden, klokken 05:00 UTC
Varsel gyldig fra 25. klokken 06 UTC til 26. klokken 12 UTC
Vind 2 kt fra skiftende retning
Sikt: 9000 m
Spredte skyer i en høyde av 2200 ft
Sannsynlighet 30% :
Midlertidig
fra 25. klokken 09 UTC til 25. klokken 13 UTC
Sikt 10 km eller mer
ingen skyer under 1500 m og ingen bygeskyer

TAF: FNLU 250500Z 2506/2612 VRB02KT 9000 SCT022 PROB30 TEMPO 2509/2513 CAVOK

Værobservasjoner og værvarsel for over 4000 flyplasser (METAR- og TAF-rapporter).

Tilgjengelige stasjoner er representert av de røde og gule prikkene på kartet.

Hold musepekeren over prikken for å se navnet på stasjonen.

Klikk så for å se værobservasjoner og -varsler.

For å forandre kartet kan du klikke på den grønne knappen med svart kryss for å zoome inn, på den grønne knappen med strek for å zoome ut, eller på de grønne pilene for å se tilstøtende kart.


METAR-TAF: